createdAt,value
2023-01-01T00:00:27.369Z,100077.09
2023-01-01T00:02:57.238Z,100070.59
2023-01-01T00:05:26.467Z,100102.19
2023-01-01T00:07:53.477Z,100083.22
2023-01-01T00:10:28.138Z,100083.56
2023-01-01T00:13:00.564Z,100073.72
2023-01-01T00:15:27.484Z,100072.25
2023-01-01T00:18:00.332Z,100103.03
2023-01-01T00:20:31.655Z,100062.94
2023-01-01T00:23:04.636Z,100074.88
2023-01-01T00:25:32.927Z,100076.63
2023-01-01T00:28:04.641Z,100085.34
2023-01-01T00:30:33.902Z,100089.50
2023-01-01T00:33:03.960Z,100083.88
2023-01-01T00:35:37.162Z,100078.09
2023-01-01T00:38:07.072Z,100064.22
2023-01-01T00:40:37.026Z,100076.50
2023-01-01T00:43:06.697Z,100082.56
2023-01-01T00:45:35.959Z,100071.44
2023-01-01T00:48:05.650Z,100097.13
2023-01-01T00:50:35.554Z,100089.06
2023-01-01T00:53:02.110Z,100091.19
2023-01-01T00:55:31.450Z,100099.25
2023-01-01T00:58:00.222Z,100093.66
2023-01-01T01:00:27.052Z,100101.53
2023-01-01T01:02:57.381Z,100098.88
2023-01-01T01:05:26.836Z,100100.50
2023-01-01T01:07:53.525Z,100117.41
2023-01-01T01:10:23.021Z,100112.50
2023-01-01T01:13:00.192Z,100114.13
2023-01-01T01:15:32.846Z,100122.03
2023-01-01T01:17:59.748Z,100123.09
2023-01-01T01:20:29.938Z,100122.00
2023-01-01T01:22:56.633Z,100120.34
2023-01-01T01:25:30.202Z,100127.13
2023-01-01T01:28:02.501Z,100128.56
2023-01-01T01:30:32.400Z,100140.03
2023-01-01T01:33:01.872Z,100145.75
2023-01-01T01:35:37.982Z,100132.97
2023-01-01T01:38:07.310Z,100142.31
2023-01-01T01:40:39.232Z,100150.34
2023-01-01T01:43:09.595Z,100128.94
2023-01-01T01:45:38.875Z,100143.78
2023-01-01T01:48:11.329Z,100136.72
2023-01-01T01:50:44.986Z,100146.31
2023-01-01T01:53:24.045Z,100141.97
2023-01-01T01:55:57.636Z,100150.19
2023-01-01T01:58:27.773Z,100138.00
2023-01-01T02:00:55.004Z,100142.72
2023-01-01T02:03:33.931Z,100139.50
2023-01-01T02:06:01.572Z,100147.81
2023-01-01T02:08:28.612Z,100151.81
2023-01-01T02:10:56.022Z,100151.81
2023-01-01T02:13:22.612Z,100152.31
2023-01-01T02:15:55.297Z,100149.84
2023-01-01T02:18:26.516Z,100142.66
2023-01-01T02:21:15.437Z,100153.63
2023-01-01T02:23:45.024Z,100151.50
2023-01-01T02:26:15.100Z,100161.97
2023-01-01T02:28:51.355Z,100154.16
2023-01-01T02:31:23.851Z,100164.91
2023-01-01T02:33:55.659Z,100161.59
2023-01-01T02:36:23.312Z,100172.28
2023-01-01T02:38:55.081Z,100185.00
2023-01-01T02:41:25.359Z,100193.25
2023-01-01T02:46:24.637Z,100193.25
2023-01-01T02:48:57.672Z,100195.44
2023-01-01T02:51:43.637Z,100184.81
2023-01-01T02:54:13.793Z,100199.38
2023-01-01T02:56:49.768Z,100194.06
2023-01-01T02:59:35.250Z,100173.75
2023-01-01T03:02:17.103Z,100181.25
2023-01-01T03:04:50.962Z,100184.88
2023-01-01T03:07:23.344Z,100185.19
2023-01-01T03:10:15.423Z,100173.84
2023-01-01T03:12:53.108Z,100169.59
2023-01-01T03:15:24.628Z,100182.09
2023-01-01T03:18:03.454Z,100172.28
2023-01-01T03:20:33.609Z,100181.44
2023-01-01T03:23:06.663Z,100195.94
2023-01-01T03:25:41.528Z,100200.47
2023-01-01T03:28:15.189Z,100200.59
2023-01-01T03:30:52.661Z,100198.66
2023-01-01T03:33:39.493Z,100194.88
2023-01-01T03:36:08.038Z,100189.88
2023-01-01T03:38:39.878Z,100204.06
2023-01-01T03:41:11.080Z,100203.09
2023-01-01T03:43:43.408Z,100203.19
2023-01-01T03:46:11.511Z,100192.19
2023-01-01T03:49:02.730Z,100191.47
2023-01-01T03:51:36.332Z,100200.63
2023-01-01T03:54:11.456Z,100214.94
2023-01-01T03:56:46.074Z,100202.19
2023-01-01T03:59:18.958Z,100203.03
2023-01-01T04:01:48.894Z,100201.28
2023-01-01T04:04:19.496Z,100198.41
2023-01-01T04:06:46.754Z,100208.81
2023-01-01T04:09:21.816Z,100215.13
2023-01-01T04:12:07.196Z,100217.56
2023-01-01T04:14:40.758Z,100229.72
2023-01-01T04:17:11.220Z,100216.66
2023-01-01T04:19:38.212Z,100218.63
2023-01-01T04:22:05.177Z,100224.00
2023-01-01T04:24:32.244Z,100212.06
2023-01-01T04:27:02.363Z,100225.16
2023-01-01T04:29:31.443Z,100232.41
2023-01-01T04:32:01.716Z,100227.84
2023-01-01T04:34:31.219Z,100229.53
2023-01-01T04:36:58.168Z,100227.13
2023-01-01T04:39:36.109Z,100233.91
2023-01-01T04:42:06.198Z,100237.50
2023-01-01T04:44:40.923Z,100235.94
2023-01-01T04:47:16.181Z,100242.81
2023-01-01T04:49:43.603Z,100242.81
2023-01-01T04:52:13.046Z,100247.50
2023-01-01T04:54:49.155Z,100240.13
2023-01-01T04:57:19.100Z,100248.00
2023-01-01T04:59:46.032Z,100242.28
2023-01-01T05:02:13.352Z,100245.22
2023-01-01T05:04:40.556Z,100250.50
2023-01-01T05:07:10.121Z,100249.53
2023-01-01T05:09:41.056Z,100247.31
2023-01-01T05:12:10.897Z,100244.88
2023-01-01T05:14:37.919Z,100239.53
2023-01-01T05:17:08.142Z,100242.59
2023-01-01T05:19:38.053Z,100232.88
2023-01-01T05:22:10.400Z,100228.78
2023-01-01T05:24:43.314Z,100247.81
2023-01-01T05:27:16.150Z,100225.94
2023-01-01T05:29:45.397Z,100246.25
2023-01-01T05:34:40.791Z,100248.09
2023-01-01T05:37:11.086Z,100240.78
2023-01-01T05:39:38.293Z,100256.03
2023-01-01T05:42:07.319Z,100265.09
2023-01-01T05:44:37.157Z,100277.84
2023-01-01T05:47:07.766Z,100270.44
2023-01-01T05:49:37.920Z,100286.66
2023-01-01T05:52:05.271Z,100284.75
2023-01-01T05:54:32.387Z,100282.50
2023-01-01T05:57:00.171Z,100287.16
2023-01-01T05:59:27.234Z,100287.53
2023-01-01T06:01:57.315Z,100279.47
2023-01-01T06:04:27.549Z,100286.22
2023-01-01T06:06:54.613Z,100284.09
2023-01-01T06:09:24.453Z,100279.16
2023-01-01T06:11:53.986Z,100275.09
2023-01-01T06:14:20.739Z,100296.41
2023-01-01T06:16:50.887Z,100293.16
2023-01-01T06:19:20.572Z,100300.16
2023-01-01T06:21:47.599Z,100292.84
2023-01-01T06:24:16.834Z,100275.31
2023-01-01T06:26:47.123Z,100288.66
2023-01-01T06:29:17.587Z,100298.06
2023-01-01T06:31:44.740Z,100302.94
2023-01-01T06:34:17.266Z,100322.66
2023-01-01T06:36:44.812Z,100313.66
2023-01-01T06:39:12.095Z,100302.63
2023-01-01T06:41:38.817Z,100305.06
2023-01-01T06:44:12.268Z,100333.66
2023-01-01T06:46:42.513Z,100333.50
2023-01-01T06:49:13.099Z,100332.50
2023-01-01T06:51:47.054Z,100339.09
2023-01-01T06:54:17.447Z,100338.97
2023-01-01T06:56:50.713Z,100353.63
2023-01-01T06:59:17.615Z,100352.16
2023-01-01T07:01:45.202Z,100371.00
2023-01-01T07:04:16.065Z,100372.63
2023-01-01T07:06:51.534Z,100367.56
2023-01-01T07:09:19.282Z,100370.03
2023-01-01T07:11:46.611Z,100374.72
2023-01-01T07:14:22.466Z,100376.00
2023-01-01T07:16:53.029Z,100350.88
2023-01-01T07:19:23.101Z,100359.84
2023-01-01T07:21:53.868Z,100351.88
2023-01-01T07:24:28.774Z,100350.69
2023-01-01T07:26:55.814Z,100375.31
2023-01-01T07:29:28.630Z,100368.09
2023-01-01T07:31:57.539Z,100370.38
2023-01-01T07:34:27.369Z,100389.88
2023-01-01T07:36:57.494Z,100389.72
2023-01-01T07:39:30.495Z,100409.03
2023-01-01T07:42:07.591Z,100407.97
2023-01-01T07:44:40.488Z,100397.78
2023-01-01T07:47:14.120Z,100412.44
2023-01-01T07:49:50.201Z,100406.97
2023-01-01T07:52:19.970Z,100412.34
2023-01-01T07:54:50.306Z,100427.78
2023-01-01T07:57:20.300Z,100413.56
2023-01-01T07:59:47.719Z,100417.72
2023-01-01T08:02:19.525Z,100438.00
2023-01-01T08:04:49.077Z,100429.31
2023-01-01T08:07:22.029Z,100439.75
2023-01-01T08:09:58.811Z,100449.81
2023-01-01T08:12:29.614Z,100447.03
2023-01-01T08:14:59.820Z,100457.34
2023-01-01T08:17:27.102Z,100454.53
2023-01-01T08:19:57.334Z,100476.47
2023-01-01T08:22:25.596Z,100472.50
2023-01-01T08:24:55.192Z,100460.41
2023-01-01T08:27:29.877Z,100476.41
2023-01-01T08:29:59.898Z,100480.91
2023-01-01T08:32:27.249Z,100477.34
2023-01-01T08:34:57.515Z,100485.53
2023-01-01T08:37:29.834Z,100489.06
2023-01-01T08:39:56.753Z,100486.34
2023-01-01T08:42:23.494Z,100489.59
2023-01-01T08:44:58.588Z,100498.97
2023-01-01T08:47:34.778Z,100505.13
2023-01-01T08:50:04.351Z,100517.16
2023-01-01T08:52:36.806Z,100530.66
2023-01-01T08:55:10.025Z,100530.38
2023-01-01T08:57:38.999Z,100532.91
2023-01-01T09:00:09.761Z,100532.38
2023-01-01T09:02:36.814Z,100528.25
2023-01-01T09:05:04.518Z,100543.00
2023-01-01T09:07:36.765Z,100542.50
2023-01-01T09:10:07.390Z,100564.72
2023-01-01T09:12:40.690Z,100567.47
2023-01-01T09:15:08.453Z,100562.09
2023-01-01T09:17:39.348Z,100571.00
2023-01-01T09:20:10.032Z,100583.47
2023-01-01T09:22:39.758Z,100590.25
2023-01-01T09:25:07.956Z,100590.19
2023-01-01T09:27:34.961Z,100612.19
2023-01-01T09:30:05.107Z,100620.47
2023-01-01T09:32:32.508Z,100633.94
2023-01-01T09:35:01.162Z,100652.06
2023-01-01T09:37:31.859Z,100663.25
2023-01-01T09:39:59.065Z,100652.72
2023-01-01T09:42:58.345Z,100662.06
2023-01-01T09:45:43.092Z,100656.22
2023-01-01T09:48:18.598Z,100679.50
2023-01-01T09:50:55.320Z,100680.41
2023-01-01T09:53:27.003Z,100694.41
2023-01-01T09:56:03.690Z,100691.56
2023-01-01T09:58:37.608Z,100701.72
2023-01-01T10:01:04.894Z,100693.75
2023-01-01T10:03:51.531Z,100690.81
2023-01-01T10:06:30.344Z,100698.97
2023-01-01T10:09:00.157Z,100698.00
2023-01-01T10:11:46.261Z,100704.72
2023-01-01T10:14:20.941Z,100707.84
2023-01-01T10:16:52.697Z,100713.72
2023-01-01T10:19:24.576Z,100705.47
2023-01-01T10:21:55.746Z,100706.50
2023-01-01T10:24:31.942Z,100723.81
2023-01-01T10:26:59.280Z,100729.94
2023-01-01T10:29:44.722Z,100729.16
2023-01-01T10:32:21.814Z,100715.19
2023-01-01T10:34:49.169Z,100708.41
2023-01-01T10:37:15.928Z,100715.81
2023-01-01T10:39:46.371Z,100718.38
2023-01-01T10:42:16.707Z,100725.56
2023-01-01T10:44:46.624Z,100712.38
2023-01-01T10:47:27.523Z,100735.47
2023-01-01T10:49:59.884Z,100741.84
2023-01-01T10:52:34.410Z,100720.44
2023-01-01T10:55:03.765Z,100712.00
2023-01-01T10:57:40.731Z,100710.53
2023-01-01T11:00:10.599Z,100715.84
2023-01-01T11:02:37.460Z,100709.81
2023-01-01T11:05:19.169Z,100703.78
2023-01-01T11:07:48.060Z,100721.97
2023-01-01T11:10:22.636Z,100720.84
2023-01-01T11:13:06.618Z,100715.78
2023-01-01T11:15:40.940Z,100728.31
2023-01-01T11:18:16.777Z,100727.06
2023-01-01T11:20:43.711Z,100719.19
2023-01-01T11:23:37.972Z,100747.97
2023-01-01T11:26:05.164Z,100747.50
2023-01-01T11:28:38.344Z,100758.72
2023-01-01T11:31:08.545Z,100762.00
2023-01-01T11:33:40.045Z,100768.66
2023-01-01T11:36:12.653Z,100771.47
2023-01-01T11:38:45.364Z,100766.56
2023-01-01T11:41:14.838Z,100789.13
2023-01-01T11:43:45.416Z,100794.84
2023-01-01T11:46:17.100Z,100782.19
2023-01-01T11:48:44.422Z,100771.66
2023-01-01T11:51:28.224Z,100789.22
2023-01-01T11:54:07.873Z,100783.44
2023-01-01T11:56:34.686Z,100795.28
2023-01-01T11:59:12.060Z,100785.84
2023-01-01T12:01:50.766Z,100782.13
2023-01-01T12:04:37.235Z,100780.47
2023-01-01T12:07:03.776Z,100782.19
2023-01-01T12:09:44.065Z,100790.88
2023-01-01T12:12:49.154Z,100782.47
2023-01-01T12:15:25.298Z,100774.09
2023-01-01T12:18:02.626Z,100774.97
2023-01-01T12:20:33.041Z,100789.44
2023-01-01T12:23:03.434Z,100805.28
2023-01-01T12:25:44.334Z,100813.06
2023-01-01T12:28:20.296Z,100822.44
2023-01-01T12:30:50.040Z,100830.91
2023-01-01T12:33:17.334Z,100824.63
2023-01-01T12:35:45.279Z,100836.09
2023-01-01T12:38:31.646Z,100852.38
2023-01-01T12:41:21.846Z,100861.66
2023-01-01T12:44:04.871Z,100865.84
2023-01-01T12:46:50.339Z,100860.94
2023-01-01T12:49:26.684Z,100848.78
2023-01-01T12:51:53.280Z,100859.66
2023-01-01T12:54:26.370Z,100855.91
2023-01-01T12:57:01.003Z,100856.47
2023-01-01T12:59:32.994Z,100870.09
2023-01-01T13:02:02.364Z,100871.81
2023-01-01T13:04:30.637Z,100867.56
2023-01-01T13:07:08.059Z,100874.00
2023-01-01T13:09:43.902Z,100873.53
2023-01-01T13:12:20.640Z,100868.56
2023-01-01T13:14:51.556Z,100875.53
2023-01-01T13:17:18.517Z,100878.59
2023-01-01T13:19:53.017Z,100866.25
2023-01-01T13:22:27.377Z,100875.63
2023-01-01T13:25:28.844Z,100885.72
2023-01-01T13:27:56.235Z,100873.13
2023-01-01T13:30:40.285Z,100873.16
2023-01-01T13:33:30.030Z,100877.75
2023-01-01T13:36:10.235Z,100893.75
2023-01-01T13:38:47.452Z,100887.16
2023-01-01T13:41:35.850Z,100884.13
2023-01-01T13:44:05.605Z,100884.28
2023-01-01T13:47:07.094Z,100887.31
2023-01-01T13:50:03.398Z,100914.97
2023-01-01T13:53:10.506Z,100911.81
2023-01-01T13:55:56.836Z,100926.88
2023-01-01T13:58:23.814Z,100945.44
2023-01-01T14:00:54.008Z,100940.34
2023-01-01T14:03:24.544Z,100938.81
2023-01-01T14:06:01.865Z,100944.16
2023-01-01T14:08:36.545Z,100943.91
2023-01-01T14:11:04.844Z,100937.03
2023-01-01T14:13:42.195Z,100945.69
2023-01-01T14:16:14.002Z,100929.47
2023-01-01T14:18:48.605Z,100934.84
2023-01-01T14:21:26.568Z,100928.38
2023-01-01T14:23:56.259Z,100938.28
2023-01-01T14:26:27.902Z,100942.94
2023-01-01T14:28:57.081Z,100955.47
2023-01-01T14:31:30.269Z,100963.94
2023-01-01T14:33:58.101Z,100960.28
2023-01-01T14:36:29.088Z,100971.22
2023-01-01T14:38:57.321Z,100971.16
2023-01-01T14:41:37.868Z,100983.53
2023-01-01T14:44:20.084Z,100992.41
2023-01-01T14:46:48.758Z,100976.44
2023-01-01T14:49:28.050Z,100987.44
2023-01-01T14:52:01.061Z,100994.28
2023-01-01T14:54:31.299Z,101001.16
2023-01-01T14:56:58.465Z,101006.81
2023-01-01T14:59:30.295Z,101006.34
2023-01-01T15:02:12.903Z,101005.31
2023-01-01T15:04:41.199Z,101014.84
2023-01-01T15:07:19.408Z,101016.75
2023-01-01T15:09:46.169Z,101034.25
2023-01-01T15:12:14.374Z,101029.28
2023-01-01T15:14:46.007Z,101036.75
2023-01-01T15:17:16.618Z,101046.88
2023-01-01T15:19:45.512Z,101062.41
2023-01-01T15:22:44.016Z,101060.75
2023-01-01T15:25:19.573Z,101068.22
2023-01-01T15:27:50.302Z,101060.34
2023-01-01T15:30:28.990Z,101059.50
2023-01-01T15:32:56.137Z,101055.81
2023-01-01T15:35:31.143Z,101060.53
2023-01-01T15:38:01.642Z,101062.81
2023-01-01T15:40:28.537Z,101070.66
2023-01-01T15:42:55.284Z,101063.91
2023-01-01T15:45:26.587Z,101070.91
2023-01-01T15:47:57.826Z,101073.84
2023-01-01T15:50:26.014Z,101077.13
2023-01-01T15:53:16.590Z,101075.25
2023-01-01T15:55:44.402Z,101072.38
2023-01-01T15:58:31.027Z,101076.66
2023-01-01T16:00:59.433Z,101085.97
2023-01-01T16:03:28.160Z,101079.72
2023-01-01T16:05:58.359Z,101086.91
2023-01-01T16:08:25.359Z,101076.50
2023-01-01T16:10:52.587Z,101072.75
2023-01-01T16:13:19.649Z,101076.91
2023-01-01T16:15:51.439Z,101083.88
2023-01-01T16:18:18.914Z,101071.97
2023-01-01T16:20:47.017Z,101073.19
2023-01-01T16:23:13.883Z,101080.50
2023-01-01T16:25:40.509Z,101076.56
2023-01-01T16:28:07.388Z,101066.34
2023-01-01T16:30:34.827Z,101072.91
2023-01-01T16:33:02.662Z,101071.31
2023-01-01T16:35:36.364Z,101077.31
2023-01-01T16:38:03.419Z,101074.88
2023-01-01T16:40:34.040Z,101071.53
2023-01-01T16:43:06.024Z,101067.41
2023-01-01T16:45:32.979Z,101069.03
2023-01-01T16:48:00.047Z,101068.84
2023-01-01T16:50:27.215Z,101073.19
2023-01-01T16:52:55.125Z,101074.81
2023-01-01T16:55:22.432Z,101076.69
2023-01-01T16:57:49.614Z,101072.56
2023-01-01T17:00:17.123Z,101073.41
2023-01-01T17:02:44.254Z,101073.97
2023-01-01T17:05:11.232Z,101078.78
2023-01-01T17:07:40.173Z,101065.09
2023-01-01T17:10:07.214Z,101065.31
2023-01-01T17:12:34.061Z,101062.38
2023-01-01T17:15:01.132Z,101060.75
2023-01-01T17:17:27.605Z,101059.34
2023-01-01T17:19:54.247Z,101051.28
2023-01-01T17:22:21.830Z,101065.41
2023-01-01T17:24:50.059Z,101070.94
2023-01-01T17:27:16.670Z,101077.44
2023-01-01T17:29:44.736Z,101076.34
2023-01-01T17:32:14.018Z,101086.13
2023-01-01T17:34:40.793Z,101083.34
2023-01-01T17:37:07.525Z,101088.31
2023-01-01T17:39:34.505Z,101082.59
2023-01-01T17:42:02.420Z,101082.81
2023-01-01T17:44:29.803Z,101083.97
2023-01-01T17:46:58.109Z,101084.84
2023-01-01T17:49:26.087Z,101096.69
2023-01-01T17:51:52.728Z,101097.53
2023-01-01T17:54:19.644Z,101107.13
2023-01-01T17:56:47.833Z,101103.03
2023-01-01T17:59:15.085Z,101110.06
2023-01-01T18:01:42.239Z,101105.88
2023-01-01T18:04:09.981Z,101109.63
2023-01-01T18:06:41.939Z,101108.72
2023-01-01T18:09:11.601Z,101106.72
2023-01-01T18:11:38.474Z,101113.38
2023-01-01T18:14:05.784Z,101127.88
2023-01-01T18:16:34.196Z,101129.91
2023-01-01T18:19:01.617Z,101128.06
2023-01-01T18:21:29.453Z,101122.28
2023-01-01T18:23:56.668Z,101130.38
2023-01-01T18:26:24.589Z,101125.59
2023-01-01T18:28:55.601Z,101113.81
2023-01-01T18:31:23.393Z,101110.88
2023-01-01T18:33:50.663Z,101110.69
2023-01-01T18:36:18.751Z,101110.09
2023-01-01T18:39:05.969Z,101115.84
2023-01-01T18:41:38.552Z,101110.50
2023-01-01T18:44:18.611Z,101108.41
2023-01-01T18:46:46.370Z,101104.69
2023-01-01T18:49:13.771Z,101112.50
2023-01-01T18:51:40.671Z,101101.34
2023-01-01T18:54:12.517Z,101094.28
2023-01-01T18:56:39.846Z,101096.41
2023-01-01T18:59:17.723Z,101097.59
2023-01-01T19:01:45.672Z,101093.91
2023-01-01T19:04:12.486Z,101093.06
2023-01-01T19:06:39.575Z,101083.56
2023-01-01T19:09:23.705Z,101092.47
2023-01-01T19:11:51.066Z,101090.22
2023-01-01T19:14:19.486Z,101091.69
2023-01-01T19:16:47.698Z,101089.09
2023-01-01T19:19:26.573Z,101088.91
2023-01-01T19:22:03.144Z,101086.84
2023-01-01T19:24:31.747Z,101093.28
2023-01-01T19:27:16.978Z,101090.97
2023-01-01T19:29:48.207Z,101096.41
2023-01-01T19:32:14.989Z,101083.34
2023-01-01T19:34:42.152Z,101082.72
2023-01-01T19:37:11.492Z,101078.19
2023-01-01T19:39:39.260Z,101090.41
2023-01-01T19:42:07.370Z,101086.06
2023-01-01T19:44:37.226Z,101081.88
2023-01-01T19:47:05.057Z,101091.13
2023-01-01T19:49:32.534Z,101088.53
2023-01-01T19:51:59.500Z,101088.13
2023-01-01T19:54:26.428Z,101088.47
2023-01-01T19:56:54.650Z,101086.13
2023-01-01T19:59:33.069Z,101085.84
2023-01-01T20:02:43.190Z,101090.16
2023-01-01T20:04:52.176Z,101096.69
2023-01-01T20:07:19.157Z,101092.63
2023-01-01T20:09:49.210Z,101086.41
2023-01-01T20:12:16.051Z,101083.94
2023-01-01T20:14:45.724Z,101074.81
2023-01-01T20:17:13.762Z,101070.44
2023-01-01T20:19:42.399Z,101066.50
2023-01-01T20:22:11.915Z,101069.97
2023-01-01T20:24:45.086Z,101071.75
2023-01-01T20:27:14.138Z,101069.72
2023-01-01T20:29:41.485Z,101066.28
2023-01-01T20:32:12.842Z,101065.97
2023-01-01T20:34:40.375Z,101066.59
2023-01-01T20:37:26.070Z,101068.19
2023-01-01T20:39:52.824Z,101061.34
2023-01-01T20:42:20.342Z,101071.59
2023-01-01T20:44:47.709Z,101068.06
2023-01-01T20:47:15.843Z,101071.59
2023-01-01T20:49:45.157Z,101064.22
2023-01-01T20:52:15.494Z,101075.25
2023-01-01T20:54:47.401Z,101065.56
2023-01-01T20:57:21.390Z,101057.59
2023-01-01T20:59:49.623Z,101065.22
2023-01-01T21:02:16.722Z,101064.75
2023-01-01T21:04:47.402Z,101072.66
2023-01-01T21:07:18.031Z,101068.31
2023-01-01T21:09:45.449Z,101071.72
2023-01-01T21:12:15.910Z,101062.19
2023-01-01T21:14:45.575Z,101056.88
2023-01-01T21:17:21.491Z,101065.84
2023-01-01T21:19:57.075Z,101062.50
2023-01-01T21:22:24.174Z,101073.97
2023-01-01T21:25:01.650Z,101075.13
2023-01-01T21:27:43.995Z,101083.00
2023-01-01T21:30:14.093Z,101083.22
2023-01-01T21:32:42.433Z,101081.44
2023-01-01T21:35:21.223Z,101082.28
2023-01-01T21:37:50.641Z,101084.44
2023-01-01T21:40:36.152Z,101087.38
2023-01-01T21:43:03.884Z,101091.00
2023-01-01T21:45:35.647Z,101111.09
2023-01-01T21:48:22.626Z,101103.66
2023-01-01T21:50:52.809Z,101094.75
2023-01-01T21:53:28.185Z,101099.91
2023-01-01T21:56:01.657Z,101082.38
2023-01-01T21:58:53.531Z,101079.75
2023-01-01T22:01:23.948Z,101068.34
2023-01-01T22:04:02.379Z,101059.06
2023-01-01T22:06:42.232Z,101055.97
2023-01-01T22:09:30.709Z,101052.66
2023-01-01T22:12:03.759Z,101053.09
2023-01-01T22:14:40.625Z,101044.81
2023-01-01T22:17:18.569Z,101043.97
2023-01-01T22:19:48.644Z,101025.69
2023-01-01T22:22:17.993Z,101020.03
2023-01-01T22:24:52.833Z,101024.41
2023-01-01T22:27:29.899Z,101029.81
2023-01-01T22:30:02.221Z,101029.88
2023-01-01T22:32:36.091Z,101035.50
2023-01-01T22:35:14.357Z,101039.00
2023-01-01T22:37:44.657Z,101030.72
2023-01-01T22:40:29.093Z,101030.34
2023-01-01T22:43:00.045Z,101024.03
2023-01-01T22:45:30.919Z,101020.69
2023-01-01T22:48:08.523Z,101017.59
2023-01-01T22:50:37.669Z,101027.34
2023-01-01T22:53:10.674Z,101024.50
2023-01-01T22:55:44.058Z,101017.31
2023-01-01T22:58:14.602Z,101015.59
2023-01-01T23:00:43.954Z,101023.50
2023-01-01T23:03:16.915Z,101021.59
2023-01-01T23:05:49.930Z,101007.72
2023-01-01T23:08:23.273Z,101000.50
2023-01-01T23:10:49.951Z,100996.00
2023-01-01T23:13:35.178Z,100990.53
2023-01-01T23:16:04.813Z,100981.25
2023-01-01T23:18:35.640Z,100976.31
2023-01-01T23:21:05.382Z,100976.94
2023-01-01T23:23:38.354Z,100971.53
2023-01-01T23:26:11.800Z,100977.97
2023-01-01T23:28:43.080Z,100971.56
2023-01-01T23:31:19.754Z,100964.44
2023-01-01T23:33:52.041Z,100958.31
2023-01-01T23:36:21.231Z,100958.94
2023-01-01T23:38:50.725Z,100940.72
2023-01-01T23:41:21.040Z,100936.06
2023-01-01T23:43:53.940Z,100930.88
2023-01-01T23:46:29.405Z,100936.84
2023-01-01T23:49:01.808Z,100931.53
2023-01-01T23:51:31.614Z,100920.69
2023-01-01T23:54:04.629Z,100920.22
2023-01-01T23:56:34.609Z,100909.34
2023-01-01T23:59:04.164Z,100913.59
